Terminal Aerodrome Forecast
Issued by NWS

Home | Current Version | Previous Version | Text Only | Print | Product List | Glossary Off
Versions: 1 2 3 4 5 6 7 8 9 10 11 12 13 14 15 16

111
FTUS43 KABR 172329
TAFATY
TAF
KATY 172329Z 1800/1824 08008KT P6SM SKC
     FM180800 06006KT P6SM OVC045
     FM181200 02006KT 4SM -SN OVC020
     FM181500 36008KT 3SM -SN OVC008
     FM182000 34010KT 5SM -RASN OVC015=

USA.gov is the U.S. government's official web portal to all federal, state and local government web resources and services.